Etusivu
METAR-TAF:

METAR-TAF

Lentoasemat :

Milford Municipal Airport (Ben and Judy Briscoe Field)

Milford, Utah, Yhdysvallat

Leveyspiiri: 38-25-21N, Pituuspiiri: 113-00-35W, korkeus merenpinnasta: 1536 m

Tämänhetkinen sää

Tämä raportti tehtiin 49 minuuttia sitten, kello 10.52 UTC
Tuuli 9 kn etelästä
Lämpötila 17°C
Kosteus 45%
Ilmanpaine 1020 hPa
Näkyvyys: 16.1 km
selkeää

METAR: KMLF 291052Z AUTO 18009KT 10SM CLR 17/05 A3013 RMK AO2 SLP131 T01670050

Aika: 05:41 (11:41 UTC)


TAF: puuttuu

Säähavainnot ja -ennusteet yli 4000 lentoasemalta (METAR- ja TAF-raportit).

Käytössä olevat sääasemat on merkitty karttaan keltaisilla ja punaisilla pisteillä.

Aseta hiiri pisteen päälle nähdäksesi sääaseman nimen.

Klikkaa sitten nähdäksesi säähavainnot ja -ennusteet.

Kartan vaihtaminen: klikkaa mustalla rastilla varustettuja vihreitä pisteitä, niin voit zoomata sisään; viivalla varustettua vihreää pistettä, niin voit zoomata ulos tai vihreitä nuolia, niin pääset viereisille kartoille.


METAR-TAF: